Time;durP1;ratioP1;P1;durP2;ratioP2;P2;SDS_P1;SDS_P2;PMS_P1;PMS_P2;Temp;Humidity;BMP_temperature;BMP_pressure;BME280_temperature;BME280_humidity;BME280_pressure;Samples;Min_cycle;Max_cycle;Signal;HPM_P1;HPM_P2
2022/01/05 00:00:47;;;;;;;9.25;1.45;;;1.90;99.90;;;;;;5078572;28;242273;-87
2022/01/05 00:03:13;;;;;;;12.40;1.90;;;1.90;99.90;;;;;;5097410;28;20062;-86
2022/01/05 00:05:39;;;;;;;12.70;1.75;;;1.90;99.90;;;;;;5045611;28;143629;-86
2022/01/05 00:08:05;;;;;;;13.13;1.50;;;1.90;99.90;;;;;;5077974;28;20040;-86
2022/01/05 00:10:31;;;;;;;16.50;2.25;;;2.00;99.90;;;;;;5070080;28;44340;-86
2022/01/05 00:12:58;;;;;;;19.20;1.98;;;1.90;99.90;;;;;;5076914;28;20050;-86
2022/01/05 00:15:24;;;;;;;15.65;1.70;;;1.90;99.90;;;;;;5063934;28;60967;-86
2022/01/05 00:17:51;;;;;;;17.58;2.17;;;2.00;99.90;;;;;;5082661;28;20032;-88
2022/01/05 00:20:17;;;;;;;20.60;2.10;;;2.00;99.90;;;;;;5102608;28;149836;-86
2022/01/05 00:22:44;;;;;;;22.00;2.10;;;2.00;99.90;;;;;;5121267;28;20056;-86
2022/01/05 00:25:10;;;;;;;17.80;1.95;;;2.00;99.90;;;;;;5095346;28;67442;-87
2022/01/05 00:27:38;;;;;;;13.73;2.25;;;2.10;99.90;;;;;;5127930;28;20050;-85
2022/01/05 00:30:06;;;;;;;16.77;1.75;;;2.20;99.90;;;;;;5090711;28;78892;-87
2022/01/05 00:32:32;;;;;;;15.32;1.58;;;2.30;99.90;;;;;;5100555;28;20047;-86
2022/01/05 00:34:58;;;;;;;12.85;1.90;;;2.40;99.90;;;;;;5079566;28;176879;-89
2022/01/05 00:37:25;;;;;;;14.90;2.03;;;2.50;99.90;;;;;;5087363;28;20047;-87
2022/01/05 00:39:51;;;;;;;11.63;1.67;;;2.50;99.90;;;;;;5073778;28;123844;-86
2022/01/05 00:42:18;;;;;;;11.80;1.83;;;2.70;99.90;;;;;;5109614;28;20046;-86
2022/01/05 00:44:44;;;;;;;13.38;1.83;;;2.80;99.90;;;;;;5066183;28;80654;-86
2022/01/05 00:47:12;;;;;;;13.23;2.28;;;2.90;99.90;;;;;;5080335;28;20062;-86
2022/01/05 00:49:39;;;;;;;16.13;2.38;;;2.90;99.90;;;;;;5064907;27;189422;-86
2022/01/05 00:52:06;;;;;;;16.00;2.72;;;3.00;99.90;;;;;;5124514;27;20036;-86
2022/01/05 00:54:32;;;;;;;18.30;2.10;;;3.00;99.90;;;;;;5071761;28;173693;-86
2022/01/05 00:56:58;;;;;;;17.23;2.00;;;3.00;99.90;;;;;;5087396;28;20051;-87
2022/01/05 00:59:26;;;;;;;19.60;2.50;;;3.00;99.90;;;;;;5066208;28;43177;-87
2022/01/05 01:01:57;;;;;;;21.75;2.17;;;3.00;99.90;;;;;;5075378;28;20059;-87
2022/01/05 01:04:23;;;;;;;17.90;1.95;;;3.00;99.90;;;;;;5041890;28;196389;-86
2022/01/05 01:06:49;;;;;;;14.25;1.63;;;2.90;99.90;;;;;;5080427;28;20047;-87
2022/01/05 01:09:15;;;;;;;15.70;1.95;;;2.90;99.90;;;;;;5072986;28;142818;-86
2022/01/05 01:11:42;;;;;;;14.63;2.00;;;2.80;99.90;;;;;;5067458;28;20048;-86
2022/01/05 01:14:10;;;;;;;11.48;1.60;;;2.80;99.90;;;;;;5076504;28;229240;-87
2022/01/05 01:16:36;;;;;;;15.07;1.80;;;2.70;99.90;;;;;;5092568;28;20046;-87
2022/01/05 01:19:03;;;;;;;10.73;1.50;;;2.70;99.90;;;;;;5088150;28;248176;-89
2022/01/05 01:21:30;;;;;;;18.58;2.38;;;2.60;99.90;;;;;;5078541;28;20046;-88
2022/01/05 01:23:56;;;;;;;14.68;1.75;;;2.60;99.90;;;;;;5089579;28;269903;-88
2022/01/05 01:26:26;;;;;;;14.43;1.55;;;2.50;99.90;;;;;;5098551;28;20066;-88
2022/01/05 01:28:53;;;;;;;14.38;1.80;;;2.50;99.90;;;;;;5086817;28;260050;-88
2022/01/05 01:31:20;;;;;;;14.25;1.73;;;2.50;99.90;;;;;;5124819;27;20052;-87
2022/01/05 01:33:47;;;;;;;19.08;1.80;;;2.50;99.90;;;;;;5074973;28;227068;-88
2022/01/05 01:36:13;;;;;;;13.50;1.85;;;2.50;99.90;;;;;;5061598;28;20051;-87
2022/01/05 01:38:41;;;;;;;14.48;1.77;;;2.60;99.90;;;;;;5058593;28;256427;-87
2022/01/05 01:41:08;;;;;;;11.07;1.80;;;2.50;99.90;;;;;;5096095;28;20432;-86
2022/01/05 01:43:35;;;;;;;22.05;2.20;;;2.60;99.90;;;;;;5084522;28;265386;-86
2022/01/05 01:46:01;;;;;;;14.93;1.73;;;2.60;99.90;;;;;;5078504;28;20043;-87
2022/01/05 01:48:28;;;;;;;16.52;1.98;;;2.60;99.90;;;;;;5092113;28;20052;-87
2022/01/05 01:50:54;;;;;;;12.40;1.50;;;2.60;99.90;;;;;;5088774;28;236303;-86
2022/01/05 01:53:20;;;;;;;15.45;2.03;;;2.50;99.90;;;;;;5109723;27;20056;-87
2022/01/05 01:55:49;;;;;;;13.48;1.98;;;2.50;99.90;;;;;;5081105;28;92148;-86
2022/01/05 01:58:19;;;;;;;20.10;2.03;;;2.50;99.90;;;;;;5079016;28;20522;-86
2022/01/05 02:00:45;;;;;;;20.35;2.28;;;2.40;99.90;;;;;;5101551;27;58993;-86
2022/01/05 02:03:14;;;;;;;17.80;2.00;;;2.40;99.90;;;;;;5093041;28;20508;-87
2022/01/05 02:05:41;;;;;;;13.25;2.00;;;2.40;99.90;;;;;;5051592;28;136914;-86
2022/01/05 02:08:07;;;;;;;21.00;2.63;;;2.40;99.90;;;;;;5077735;28;20051;-86
2022/01/05 02:10:34;;;;;;;18.63;1.80;;;2.40;99.90;;;;;;5050389;28;169486;-86
2022/01/05 02:13:00;;;;;;;16.98;2.53;;;2.40;99.90;;;;;;5074159;28;20048;-86
2022/01/05 02:15:27;;;;;;;15.90;2.25;;;2.40;99.90;;;;;;5060584;28;55318;-85
2022/01/05 02:18:10;;;;;;;15.60;2.00;;;2.40;99.90;;;;;;5091394;28;20058;-86
2022/01/05 02:20:36;;;;;;;18.58;2.10;;;2.40;99.90;;;;;;5058524;28;137474;-86
2022/01/05 02:23:03;;;;;;;16.08;2.03;;;2.30;99.90;;;;;;5077881;28;20047;-86
2022/01/05 02:25:30;;;;;;;15.05;2.15;;;2.30;99.90;;;;;;5076750;28;125505;-86
2022/01/05 02:27:56;;;;;;;15.68;1.95;;;2.30;99.90;;;;;;5108469;28;20059;-86
2022/01/05 02:30:28;;;;;;;12.85;2.15;;;2.30;99.90;;;;;;5075246;28;204745;-86
2022/01/05 02:32:55;;;;;;;15.60;2.70;;;2.30;99.90;;;;;;5076859;28;20056;-86
2022/01/05 02:35:22;;;;;;;13.02;1.90;;;2.30;99.90;;;;;;5067400;28;125828;-88
2022/01/05 02:37:52;;;;;;;16.60;2.20;;;2.30;99.90;;;;;;5076433;28;20048;-87
2022/01/05 02:40:21;;;;;;;15.63;2.10;;;2.40;99.90;;;;;;5083634;28;20059;-87
2022/01/05 02:42:48;;;;;;;13.68;2.15;;;2.40;99.90;;;;;;5081511;28;20051;-86
2022/01/05 02:45:15;;;;;;;16.65;2.22;;;2.40;99.90;;;;;;5078501;28;176743;-86
2022/01/05 02:47:42;;;;;;;20.48;2.60;;;2.50;99.90;;;;;;5100074;28;20100;-86
2022/01/05 02:50:10;;;;;;;17.02;2.33;;;2.60;99.90;;;;;;5088250;28;72100;-86
2022/01/05 02:52:37;;;;;;;17.50;2.28;;;2.70;99.90;;;;;;5081362;28;20047;-86
2022/01/05 02:55:05;;;;;;;21.58;2.47;;;2.70;99.90;;;;;;5087005;28;41128;-89
2022/01/05 02:57:32;;;;;;;19.95;2.55;;;2.80;99.90;;;;;;5099837;28;20056;-86
2022/01/05 02:59:58;;;;;;;20.77;2.67;;;2.80;99.90;;;;;;5078283;28;31807;-86
2022/01/05 03:02:26;;;;;;;16.15;2.05;;;2.90;99.90;;;;;;5073303;28;20063;-86
2022/01/05 03:04:52;;;;;;;17.48;2.50;;;2.90;99.90;;;;;;5037876;28;160297;-86
2022/01/05 03:07:22;;;;;;;22.90;2.60;;;2.90;99.90;;;;;;5094012;28;20054;-86
2022/01/05 03:09:48;;;;;;;16.45;2.13;;;2.90;99.90;;;;;;5098113;28;31623;-85
2022/01/05 03:12:15;;;;;;;16.38;2.03;;;2.90;99.90;;;;;;5094457;28;20063;-86
2022/01/05 03:14:41;;;;;;;23.08;2.25;;;3.00;99.90;;;;;;4989283;28;2995931;-86
2022/01/05 03:17:09;;;;;;;14.75;2.00;;;3.00;99.90;;;;;;5098911;28;20531;-86
2022/01/05 03:19:35;;;;;;;15.60;2.05;;;3.00;99.90;;;;;;5094385;28;20051;-85
2022/01/05 03:22:01;;;;;;;17.10;2.25;;;3.00;99.90;;;;;;5093137;28;20056;-86
2022/01/05 03:24:27;;;;;;;19.85;2.90;;;3.10;99.90;;;;;;5069483;28;26485;-88
2022/01/05 03:26:53;;;;;;;18.63;2.72;;;3.10;99.90;;;;;;5081058;28;20058;-87
2022/01/05 03:29:19;;;;;;;18.27;2.50;;;3.10;99.90;;;;;;5079360;28;71051;-87
2022/01/05 03:31:46;;;;;;;21.95;2.53;;;3.20;99.90;;;;;;5066280;28;20083;-86
2022/01/05 03:34:18;;;;;;;21.92;2.47;;;3.20;99.90;;;;;;5060721;28;81289;-86
2022/01/05 03:36:45;;;;;;;22.27;2.85;;;3.20;99.90;;;;;;5090909;28;20051;-86
2022/01/05 03:39:12;;;;;;;16.73;2.65;;;3.30;99.90;;;;;;5084958;28;113660;-86
2022/01/05 03:41:39;;;;;;;26.23;2.83;;;3.30;99.90;;;;;;5080432;28;20055;-86
2022/01/05 03:44:06;;;;;;;20.35;2.78;;;3.40;99.90;;;;;;5066582;28;225264;-86
2022/01/05 03:46:33;;;;;;;18.15;2.88;;;3.40;99.90;;;;;;5094615;28;20070;-88
2022/01/05 03:49:00;;;;;;;19.60;2.72;;;3.40;99.90;;;;;;5084020;28;64602;-86
2022/01/05 03:51:26;;;;;;;18.13;2.38;;;3.50;99.90;;;;;;5068194;28;20043;-87
2022/01/05 03:53:52;;;;;;;19.70;2.45;;;3.50;99.90;;;;;;5073697;27;249696;-86
2022/01/05 03:56:20;;;;;;;18.95;2.40;;;3.50;99.90;;;;;;5097836;28;20056;-86
2022/01/05 03:58:49;;;;;;;17.75;2.80;;;3.50;99.90;;;;;;5096003;27;274193;-86
2022/01/05 04:01:15;;;;;;;22.75;2.72;;;3.60;99.90;;;;;;5095685;28;20484;-86
2022/01/05 04:03:41;;;;;;;18.63;2.30;;;3.50;99.90;;;;;;5076103;27;274638;-86
2022/01/05 04:06:07;;;;;;;18.67;2.28;;;3.60;99.90;;;;;;5069012;28;20138;-85
2022/01/05 04:08:34;;;;;;;19.52;2.47;;;3.60;99.90;;;;;;5081593;28;273844;-86
2022/01/05 04:11:00;;;;;;;20.92;2.40;;;3.50;99.90;;;;;;5065100;28;20043;-85
2022/01/05 04:13:26;;;;;;;24.20;2.72;;;3.60;99.90;;;;;;5106027;27;20048;-85
2022/01/05 04:15:52;;;;;;;19.33;2.20;;;3.60;99.90;;;;;;5064725;28;236614;-85
2022/01/05 04:18:19;;;;;;;15.10;2.13;;;3.70;99.90;;;;;;5085241;28;20039;-86
2022/01/05 04:20:46;;;;;;;17.15;2.03;;;3.80;99.90;;;;;;5080765;28;140333;-86
2022/01/05 04:23:13;;;;;;;14.77;2.05;;;3.70;99.90;;;;;;5114286;27;20488;-86
2022/01/05 04:25:41;;;;;;;14.43;1.95;;;3.80;99.90;;;;;;5067098;28;20051;-86
2022/01/05 04:28:08;;;;;;;14.70;2.10;;;3.80;99.90;;;;;;5109247;28;20047;-86
2022/01/05 04:30:34;;;;;;;22.13;2.58;;;3.80;99.90;;;;;;5061826;28;230787;-85
2022/01/05 04:33:02;;;;;;;15.90;2.03;;;3.90;99.90;;;;;;5113720;28;20056;-86
2022/01/05 04:35:28;;;;;;;12.32;1.83;;;3.90;99.90;;;;;;5065604;28;77205;-86
2022/01/05 04:37:54;;;;;;;19.65;2.50;;;3.90;99.90;;;;;;5083015;28;20054;-86
2022/01/05 04:40:21;;;;;;;11.85;1.67;;;3.90;99.90;;;;;;5079339;28;231108;-86
2022/01/05 04:42:47;;;;;;;13.73;1.90;;;3.90;99.90;;;;;;5093530;28;20048;-86
2022/01/05 04:45:13;;;;;;;16.05;2.13;;;3.90;99.90;;;;;;5049484;28;115811;-86
2022/01/05 04:47:40;;;;;;;17.13;2.45;;;3.90;99.90;;;;;;5101067;28;20035;-87
2022/01/05 04:50:08;;;;;;;16.33;2.15;;;3.80;99.90;;;;;;5083120;28;84803;-86
2022/01/05 04:52:39;;;;;;;14.95;1.75;;;3.80;99.90;;;;;;5109855;28;20054;-88
2022/01/05 04:55:06;;;;;;;18.30;2.45;;;3.80;99.90;;;;;;5100296;28;123531;-86
2022/01/05 04:57:33;;;;;;;13.88;2.13;;;3.80;99.90;;;;;;5093144;28;20050;-87
2022/01/05 04:59:59;;;;;;;13.25;1.80;;;3.80;99.90;;;;;;5092860;28;102737;-86
2022/01/05 05:02:25;;;;;;;15.18;2.00;;;3.80;99.90;;;;;;5089949;28;20052;-86
2022/01/05 05:04:51;;;;;;;17.08;2.10;;;3.70;99.90;;;;;;5057394;28;254382;-86
2022/01/05 05:07:18;;;;;;;21.35;2.50;;;3.70;99.90;;;;;;5089626;28;20043;-87
2022/01/05 05:09:44;;;;;;;15.48;1.95;;;3.70;99.90;;;;;;5083798;28;100566;-87
2022/01/05 05:12:10;;;;;;;15.52;2.10;;;3.70;99.90;;;;;;5080957;28;20055;-87
2022/01/05 05:14:37;;;;;;;20.13;2.30;;;3.70;99.90;;;;;;5066453;28;20190;-87
2022/01/05 05:17:03;;;;;;;17.63;2.45;;;3.70;99.90;;;;;;5084413;28;20052;-86
2022/01/05 05:19:31;;;;;;;22.83;2.72;;;3.70;99.90;;;;;;5066943;27;236095;-86
2022/01/05 05:21:58;;;;;;;18.58;2.45;;;3.70;99.90;;;;;;5093733;28;20048;-86
2022/01/05 05:24:24;;;;;;;19.25;2.55;;;3.60;99.90;;;;;;5057280;28;187998;-86
2022/01/05 05:26:50;;;;;;;14.48;2.25;;;3.70;99.90;;;;;;5073433;28;20059;-86
2022/01/05 05:29:16;;;;;;;19.98;2.90;;;3.70;99.90;;;;;;5077045;28;145163;-87
2022/01/05 05:31:42;;;;;;;19.02;2.30;;;3.70;99.90;;;;;;5081753;28;20059;-86
2022/01/05 05:34:08;;;;;;;24.02;2.65;;;3.80;99.90;;;;;;5100574;27;126403;-86
2022/01/05 05:36:37;;;;;;;20.30;2.53;;;3.80;99.90;;;;;;5093665;28;20147;-88
2022/01/05 05:39:04;;;;;;;19.35;3.22;;;3.90;99.90;;;;;;5082476;28;77396;-85
2022/01/05 05:41:30;;;;;;;18.60;2.65;;;3.90;99.90;;;;;;5084332;28;20050;-86
2022/01/05 05:43:57;;;;;;;19.75;2.40;;;3.90;99.90;;;;;;5077263;28;120764;-86
2022/01/05 05:46:25;;;;;;;24.38;3.05;;;3.90;99.90;;;;;;5091475;28;20047;-86
2022/01/05 05:48:51;;;;;;;17.45;2.33;;;4.00;99.90;;;;;;5056671;28;268430;-87
2022/01/05 05:51:17;;;;;;;21.77;3.33;;;4.00;99.90;;;;;;5092754;28;20066;-87
2022/01/05 05:53:43;;;;;;;19.27;2.40;;;4.00;99.90;;;;;;5094750;28;258520;-87
2022/01/05 05:56:09;;;;;;;16.83;2.83;;;4.10;99.90;;;;;;5112554;28;20060;-88
2022/01/05 05:58:36;;;;;;;20.02;2.55;;;4.10;99.90;;;;;;5092614;28;267652;-89
2022/01/05 06:01:02;;;;;;;21.05;3.00;;;4.10;99.90;;;;;;5099584;28;20032;-89
2022/01/05 06:03:29;;;;;;;18.05;2.60;;;4.10;99.90;;;;;;5112151;28;20036;-87
2022/01/05 06:05:55;;;;;;;22.25;2.67;;;4.10;99.90;;;;;;5060770;28;204162;-89
2022/01/05 06:08:22;;;;;;;24.48;3.22;;;4.20;99.90;;;;;;5090113;28;20060;-87
2022/01/05 06:10:49;;;;;;;21.00;3.03;;;4.10;99.90;;;;;;5079220;28;20111;-88
2022/01/05 06:13:15;;;;;;;17.70;3.15;;;4.10;99.90;;;;;;5080874;28;20520;-88
2022/01/05 06:15:41;;;;;;;17.58;2.28;;;4.00;99.90;;;;;;5053434;28;22912;-87
2022/01/05 06:18:07;;;;;;;19.88;2.38;;;4.10;99.90;;;;;;5077707;28;20058;-87
2022/01/05 06:20:33;;;;;;;16.48;2.30;;;4.00;99.90;;;;;;5080127;28;126583;-87
2022/01/05 06:23:00;;;;;;;18.00;2.33;;;4.10;99.90;;;;;;5090511;28;20043;-88
2022/01/05 06:25:29;;;;;;;20.35;2.80;;;4.00;99.90;;;;;;5062677;28;205988;-88
2022/01/05 06:27:55;;;;;;;19.63;2.55;;;4.00;99.90;;;;;;5089276;28;20066;-88
2022/01/05 06:30:21;;;;;;;19.58;2.50;;;4.00;99.90;;;;;;5071503;28;119935;-87
2022/01/05 06:32:48;;;;;;;16.20;1.92;;;4.00;99.90;;;;;;5091037;28;20039;-86
2022/01/05 06:35:16;;;;;;;22.70;3.05;;;4.00;99.90;;;;;;5073992;28;165453;-87
2022/01/05 06:37:45;;;;;;;20.75;2.70;;;4.00;99.90;;;;;;5088814;28;20063;-88
2022/01/05 06:40:12;;;;;;;20.00;2.45;;;4.00;99.90;;;;;;5062892;28;191750;-88
2022/01/05 06:42:41;;;;;;;17.58;2.45;;;4.00;99.90;;;;;;5089084;28;20056;-89
2022/01/05 06:45:18;;;;;;;24.65;2.85;;;4.00;99.90;;;;;;5056250;28;20052;-90
2022/01/05 06:47:55;;;;;;;21.95;2.78;;;4.00;99.90;;;;;;5072678;28;20043;-91
2022/01/05 06:50:24;;;;;;;16.17;2.25;;;4.10;99.90;;;;;;5060661;28;275227;-88
2022/01/05 06:52:51;;;;;;;21.02;2.55;;;4.00;99.90;;;;;;5087423;28;20047;-88
2022/01/05 06:55:19;;;;;;;22.02;2.88;;;4.00;99.90;;;;;;5069178;28;149918;-88
2022/01/05 06:57:50;;;;;;;16.67;2.20;;;4.10;99.90;;;;;;5092432;28;20047;-88
2022/01/05 07:00:18;;;;;;;20.17;2.17;;;4.10;99.90;;;;;;5091185;28;48367;-88
2022/01/05 07:02:44;;;;;;;15.85;2.08;;;4.20;99.90;;;;;;5090295;28;20092;-89
2022/01/05 07:05:11;;;;;;;16.00;1.85;;;4.20;99.90;;;;;;5078055;28;91100;-87
2022/01/05 07:07:38;;;;;;;16.08;1.83;;;4.20;99.90;;;;;;5071772;28;20054;-88
2022/01/05 07:10:06;;;;;;;14.45;1.63;;;4.20;99.90;;;;;;5073725;28;211869;-87
2022/01/05 07:12:33;;;;;;;11.98;1.50;;;4.10;99.90;;;;;;5074808;28;20048;-88
2022/01/05 07:14:59;;;;;;;17.83;2.03;;;4.20;99.90;;;;;;5078891;28;224321;-87
2022/01/05 07:17:28;;;;;;;12.43;1.50;;;4.20;99.90;;;;;;5089620;28;20063;-87
2022/01/05 07:19:56;;;;;;;9.70;0.98;;;4.20;99.90;;;;;;5065125;28;190665;-87
2022/01/05 07:22:25;;;;;;;14.35;1.48;;;4.20;99.90;;;;;;5074246;28;20055;-88
2022/01/05 07:24:54;;;;;;;12.00;1.50;;;4.20;99.90;;;;;;5076374;28;260631;-87
2022/01/05 07:27:21;;;;;;;18.20;1.67;;;4.10;99.90;;;;;;5087233;28;20047;-87
2022/01/05 07:29:47;;;;;;;11.88;1.50;;;4.10;99.90;;;;;;5075817;28;237203;-86
2022/01/05 07:32:13;;;;;;;13.02;1.52;;;4.10;99.90;;;;;;5093534;28;20047;-87
2022/01/05 07:34:40;;;;;;;17.35;1.75;;;4.10;99.90;;;;;;5057322;28;131046;-88
2022/01/05 07:37:06;;;;;;;13.60;1.60;;;4.20;99.90;;;;;;5077358;28;20063;-89
2022/01/05 07:39:33;;;;;;;13.70;1.65;;;4.20;99.90;;;;;;5080868;28;20067;-88
2022/01/05 07:41:59;;;;;;;9.95;1.52;;;4.30;99.90;;;;;;5080535;28;20047;-87
2022/01/05 07:44:25;;;;;;;12.93;1.42;;;4.20;99.90;;;;;;5060569;28;148793;-87
2022/01/05 07:46:51;;;;;;;14.10;1.52;;;4.30;99.90;;;;;;5071676;28;20127;-87
2022/01/05 07:49:17;;;;;;;18.67;1.77;;;4.40;99.90;;;;;;5072945;28;262643;-87
2022/01/05 07:51:44;;;;;;;13.13;1.92;;;4.40;99.90;;;;;;5072856;28;20063;-85
2022/01/05 07:54:10;;;;;;;12.90;1.48;;;4.40;99.90;;;;;;5073110;28;177185;-86
2022/01/05 07:56:37;;;;;;;15.25;1.98;;;4.40;99.90;;;;;;5071291;28;20888;-86
2022/01/05 07:59:04;;;;;;;15.18;1.90;;;4.50;99.90;;;;;;5064983;28;108200;-85
2022/01/05 08:01:42;;;;;;;16.73;1.95;;;4.50;99.90;;;;;;5070090;28;20040;-88
2022/01/05 08:04:49;;;;;;;10.90;1.70;;;4.60;99.90;;;;;;4832093;28;10003830;-91
2022/01/05 08:12:00;;;;;;;15.33;1.53;;;4.80;99.90;;;;;;5028317;28;20060;-90
2022/01/05 08:14:29;;;;;;;11.82;1.10;;;4.80;99.90;;;;;;5021276;22;20053;-69
2022/01/05 08:16:55;;;;;;;11.95;1.83;;;4.90;99.90;;;;;;5023580;28;20054;-69
2022/01/05 08:19:21;;;;;;;19.70;2.13;;;5.00;99.90;;;;;;5032142;28;55335;-69
2022/01/05 08:21:47;;;;;;;12.27;1.58;;;5.00;99.90;;;;;;5049103;28;20393;-69
2022/01/05 08:24:13;;;;;;;18.38;2.25;;;5.00;99.90;;;;;;5027622;28;258916;-69
2022/01/05 08:26:39;;;;;;;14.68;2.03;;;5.00;99.90;;;;;;5055434;28;20071;-68
2022/01/05 08:29:06;;;;;;;15.80;1.90;;;5.00;99.90;;;;;;5028935;23;252255;-85
2022/01/05 08:31:32;;;;;;;17.77;2.10;;;5.00;99.90;;;;;;5021805;28;20053;-86
2022/01/05 08:33:59;;;;;;;16.90;2.08;;;5.00;99.90;;;;;;5028865;28;145922;-85
2022/01/05 08:36:26;;;;;;;17.50;1.92;;;5.00;99.90;;;;;;5003566;28;20030;-85
2022/01/05 08:38:52;;;;;;;17.38;2.38;;;5.10;99.90;;;;;;5011609;28;259643;-87
2022/01/05 08:41:19;;;;;;;16.90;2.00;;;5.10;99.90;;;;;;5021746;28;20049;-84
2022/01/05 08:43:46;;;;;;;16.23;2.07;;;5.10;99.90;;;;;;4979760;28;257518;-84
2022/01/05 08:46:12;;;;;;;17.92;2.03;;;5.20;99.90;;;;;;4995627;28;20054;-83
2022/01/05 08:48:40;;;;;;;19.47;2.20;;;5.20;99.90;;;;;;4993901;28;268694;-84
2022/01/05 08:51:07;;;;;;;16.77;1.90;;;5.20;99.90;;;;;;5011926;28;20050;-84
2022/01/05 08:53:33;;;;;;;18.92;2.03;;;5.20;99.90;;;;;;5001956;28;250878;-83
2022/01/05 08:55:59;;;;;;;13.25;1.75;;;5.30;99.90;;;;;;5013320;28;20046;-84
2022/01/05 08:58:29;;;;;;;14.63;1.85;;;5.30;99.90;;;;;;4997427;28;20562;-83
2022/01/05 09:00:55;;;;;;;16.27;1.73;;;5.30;99.90;;;;;;4998533;28;164960;-83
2022/01/05 09:03:21;;;;;;;19.70;2.15;;;5.40;99.90;;;;;;5024201;28;20050;-84
2022/01/05 09:05:47;;;;;;;18.80;1.63;;;5.40;99.90;;;;;;5000590;28;114268;-83
2022/01/05 09:08:14;;;;;;;17.95;1.90;;;5.50;99.90;;;;;;5023155;28;20052;-82
2022/01/05 09:10:41;;;;;;;12.77;1.60;;;5.50;99.90;;;;;;4914859;28;2830405;-84
2022/01/05 09:13:09;;;;;;;17.73;1.85;;;5.60;99.90;;;;;;5013602;28;20060;-84
2022/01/05 09:15:37;;;;;;;19.58;1.73;;;5.60;99.90;;;;;;4995435;28;190703;-84
2022/01/05 09:18:03;;;;;;;13.45;1.48;;;5.60;99.90;;;;;;5011760;28;20129;-84
2022/01/05 09:20:30;;;;;;;17.30;1.52;;;5.50;99.90;;;;;;4999452;28;169618;-84
2022/01/05 09:22:56;;;;;;;21.73;2.55;;;5.50;99.90;;;;;;4996306;28;20065;-84
2022/01/05 09:25:23;;;;;;;16.70;2.15;;;5.50;99.90;;;;;;4980968;28;211989;-85
2022/01/05 09:27:52;;;;;;;17.02;1.95;;;5.50;99.90;;;;;;5011264;28;20066;-84
2022/01/05 09:30:20;;;;;;;14.20;1.77;;;5.50;99.90;;;;;;4984105;28;145682;-84
2022/01/05 09:32:47;;;;;;;18.30;2.30;;;5.50;99.90;;;;;;5010156;28;20061;-85
2022/01/05 09:35:16;;;;;;;18.20;2.00;;;5.50;99.90;;;;;;4997670;28;249006;-84
2022/01/05 09:38:07;;;;;;;20.80;2.08;;;5.50;99.90;;;;;;4995262;28;20046;-85
2022/01/05 09:43:19;;;;;;;20.00;2.53;;;5.50;99.90;;;;;;5015071;28;20052;-84
2022/01/05 09:46:07;;;;;;;24.73;2.35;;;5.70;99.90;;;;;;4982870;28;87255;-83
2022/01/05 09:49:26;;;;;;;26.23;2.78;;;5.70;99.90;;;;;;5000832;28;278636;-83
2022/01/05 09:51:55;;;;;;;20.33;2.70;;;5.80;99.90;;;;;;4949492;28;20442;-83
2022/01/05 09:54:22;;;;;;;24.00;2.95;;;5.90;99.90;;;;;;4934199;28;236848;-83
2022/01/05 09:56:50;;;;;;;21.27;2.70;;;5.90;99.90;;;;;;4973829;28;20138;-83
2022/01/05 09:59:16;;;;;;;26.38;3.88;;;6.00;99.90;;;;;;4943262;28;49218;-82
2022/01/05 10:01:43;;;;;;;24.33;3.08;;;6.00;99.90;;;;;;4954065;28;20066;-83
2022/01/05 10:04:10;;;;;;;24.77;3.10;;;6.10;99.90;;;;;;4911168;28;154919;-83
2022/01/05 10:06:38;;;;;;;28.10;3.38;;;6.10;99.90;;;;;;4939883;28;20440;-83
2022/01/05 10:09:05;;;;;;;27.92;4.05;;;6.10;99.90;;;;;;4929087;28;160605;-83
2022/01/05 10:11:31;;;;;;;28.63;3.83;;;6.20;99.90;;;;;;4942775;28;20213;-84
2022/01/05 10:13:57;;;;;;;30.10;3.70;;;6.30;99.90;;;;;;4940020;28;33179;-84
2022/01/05 10:16:25;;;;;;;27.23;3.45;;;6.40;99.90;;;;;;4950823;28;20059;-82
2022/01/05 10:18:51;;;;;;;40.13;5.32;;;6.50;99.90;;;;;;4891617;28;1034433;-83
2022/01/05 10:21:17;;;;;;;28.10;3.75;;;6.50;99.90;;;;;;4953896;28;20055;-82
2022/01/05 10:23:53;;;;;;;28.05;3.88;;;6.50;99.90;;;;;;4924214;28;172825;-81
2022/01/05 10:26:25;;;;;;;27.90;3.80;;;6.60;99.90;;;;;;4996424;28;20050;-81
2022/01/05 10:29:20;;;;;;;27.05;3.70;;;6.60;99.90;;;;;;4972032;28;256461;-81
2022/01/05 10:31:55;;;;;;;23.30;3.17;;;6.70;99.90;;;;;;4944665;28;20397;-82
2022/01/05 10:34:26;;;;;;;28.60;3.90;;;6.70;99.90;;;;;;4959192;28;120514;-81
2022/01/05 10:36:55;;;;;;;22.00;3.53;;;6.70;99.90;;;;;;4984978;28;20054;-81
2022/01/05 10:39:43;;;;;;;31.33;4.45;;;6.70;99.90;;;;;;4946747;28;275674;-81
2022/01/05 10:42:11;;;;;;;28.20;3.85;;;6.70;99.90;;;;;;4973662;28;20058;-81
2022/01/05 10:44:41;;;;;;;26.27;3.95;;;6.70;99.90;;;;;;4962247;28;158143;-81
2022/01/05 10:47:07;;;;;;;26.45;3.20;;;6.70;99.90;;;;;;4967458;28;20054;-82
2022/01/05 10:49:36;;;;;;;29.15;3.25;;;6.80;99.90;;;;;;4966831;28;20054;-82
2022/01/05 10:52:23;;;;;;;27.33;3.47;;;6.90;99.90;;;;;;4973228;28;20059;-82
2022/01/05 10:54:50;;;;;;;29.25;3.38;;;7.10;99.90;;;;;;4962289;28;118599;-81
2022/01/05 10:57:17;;;;;;;23.85;3.65;;;7.20;99.90;;;;;;4958487;28;20099;-82
2022/01/05 10:59:46;;;;;;;27.85;3.50;;;7.20;99.90;;;;;;4968268;28;23470;-84
2022/01/05 11:02:30;;;;;;;23.40;3.47;;;7.10;99.90;;;;;;4976758;28;20451;-82
2022/01/05 11:05:16;;;;;;;26.45;3.92;;;7.10;99.90;;;;;;4929565;28;140952;-82
2022/01/05 11:07:46;;;;;;;28.85;3.83;;;7.00;99.90;;;;;;4957984;28;20069;-82
2022/01/05 11:10:18;;;;;;;28.08;4.53;;;7.10;99.90;;;;;;5001767;28;29959;-81
2022/01/05 11:12:50;;;;;;;20.67;3.13;;;7.10;99.90;;;;;;5014118;28;20057;-82
2022/01/05 11:15:22;;;;;;;20.80;3.08;;;7.10;99.90;;;;;;5002226;28;36518;-82
2022/01/05 11:18:18;;;;;;;30.45;3.22;;;7.20;99.90;;;;;;5000708;28;20060;-82
2022/01/05 11:21:02;;;;;;;25.90;3.00;;;7.20;99.90;;;;;;5012580;28;20056;-83
2022/01/05 11:23:32;;;;;;;21.75;3.30;;;7.40;99.90;;;;;;5016382;28;20054;-83
2022/01/05 11:26:00;;;;;;;21.83;2.83;;;7.50;99.90;;;;;;4982772;28;20037;-82
2022/01/05 11:28:28;;;;;;;21.33;3.03;;;7.50;99.90;;;;;;5018322;28;20050;-83
2022/01/05 11:30:56;;;;;;;23.35;2.95;;;7.50;99.90;;;;;;4986463;28;131899;-83
2022/01/05 11:33:23;;;;;;;22.60;2.75;;;7.50;99.90;;;;;;5019680;28;20208;-83
2022/01/05 11:35:50;;;;;;;20.73;2.60;;;7.40;99.90;;;;;;5015575;28;266172;-83
2022/01/05 11:38:16;;;;;;;20.33;2.80;;;7.40;99.90;;;;;;5017344;28;20065;-83
2022/01/05 11:40:52;;;;;;;21.42;3.30;;;7.40;99.90;;;;;;4989962;28;245401;-85
2022/01/05 11:43:25;;;;;;;19.50;3.03;;;7.50;99.90;;;;;;4998502;28;20082;-84
2022/01/05 11:45:51;;;;;;;21.70;3.03;;;7.60;99.90;;;;;;5019140;28;210525;-84
2022/01/05 11:48:31;;;;;;;21.00;2.95;;;7.70;99.90;;;;;;5017133;28;20061;-84
2022/01/05 11:51:00;;;;;;;23.55;3.45;;;7.70;99.90;;;;;;5001999;28;23139;-84
2022/01/05 11:53:38;;;;;;;24.30;3.15;;;7.80;99.90;;;;;;4999657;28;20604;-84
2022/01/05 11:56:11;;;;;;;24.02;2.92;;;7.70;99.90;;;;;;5004338;28;20061;-85
2022/01/05 11:58:53;;;;;;;21.88;3.25;;;7.70;99.90;;;;;;4995367;28;274895;-85
2022/01/05 12:01:20;;;;;;;22.27;3.10;;;7.70;99.90;;;;;;5012656;28;20061;-85
2022/01/05 12:03:57;;;;;;;22.43;2.97;;;7.80;99.90;;;;;;4979339;28;283566;-84
2022/01/05 12:06:25;;;;;;;18.50;2.90;;;7.80;99.90;;;;;;5010789;28;20069;-84
2022/01/05 12:08:54;;;;;;;20.48;2.75;;;7.80;99.90;;;;;;4997361;28;266841;-84
2022/01/05 12:11:53;;;;;;;19.17;2.55;;;7.70;99.90;;;;;;5013324;28;20053;-84
2022/01/05 12:14:20;;;;;;;20.17;2.40;;;7.80;99.90;;;;;;4966235;28;162367;-85
2022/01/05 12:17:01;;;;;;;16.17;2.25;;;7.70;99.90;;;;;;4985786;28;20054;-82
2022/01/05 12:19:33;;;;;;;19.52;2.85;;;7.80;99.90;;;;;;4980990;28;20338;-84
2022/01/05 12:22:19;;;;;;;23.60;2.80;;;7.80;99.90;;;;;;4987631;28;20049;-85
2022/01/05 12:25:05;;;;;;;23.60;2.92;;;8.20;99.90;;;;;;4974367;28;217994;-85
2022/01/05 12:27:37;;;;;;;21.63;2.95;;;9.10;99.90;;;;;;4979836;28;20185;-83
2022/01/05 12:30:18;;;;;;;27.13;3.63;;;9.20;99.90;;;;;;4982705;28;66315;-85
2022/01/05 12:32:49;;;;;;;21.30;3.05;;;8.80;99.90;;;;;;5007479;28;20060;-85
2022/01/05 12:35:15;;;;;;;27.85;3.58;;;9.60;99.90;;;;;;4984213;28;30931;-85
2022/01/05 12:38:04;;;;;;;18.73;2.80;;;10.30;99.90;;;;;;5020484;28;20045;-85
2022/01/05 12:40:46;;;;;;;19.02;2.85;;;9.70;99.90;;;;;;4997732;28;267453;-86
2022/01/05 12:43:13;;;;;;;21.65;3.05;;;9.20;99.90;;;;;;4975658;28;20073;-86
2022/01/05 12:46:00;;;;;;;22.38;3.58;;;9.70;99.90;;;;;;4986147;28;217636;-86
2022/01/05 12:48:32;;;;;;;22.50;2.80;;;9.80;99.90;;;;;;5002720;28;20132;-85
2022/01/05 12:51:17;;;;;;;21.95;3.30;;;10.60;99.90;;;;;;5011044;28;20065;-86
2022/01/05 12:54:07;;;;;;;21.42;3.03;;;11.00;98.60;;;;;;5001501;28;299317;-86
2022/01/05 12:56:53;;;;;;;24.23;3.38;;;10.30;98.40;;;;;;4998986;28;20042;-87
2022/01/05 12:59:34;;;;;;;24.27;3.60;;;9.30;99.90;;;;;;5021175;28;177800;-86